Flight Track Log - Related Links

Times and Time Zones

All times are in EDT time to prevent confusion due to time zone crossing. See the ASQ4283 flight status page for this flight to view local times or setup timezone preferences in your user account.

Time Position Orientation Groundspeed Altitude Reporting Facility
EDT Latitude Longitude Course Direction KTS MPH feet Rate Location/Type
Wed 08:15:32 41.9333 -87.9167 178° South 193 222 1,700  Level Chicago TRACON
Wed 08:17:36 41.8100 -87.8867 170° South 253 291 6,000 2,290 Climbing Chicago Center
Wed 08:18:38 41.7283 -87.8208 149° Southeast 280 322 8,800 2,468 Climbing Chicago Center
Wed 08:19:00 41.6309 -87.5909 156° South  Level Estimated
Wed 08:19:40 41.6539 -87.7600 149° Southeast 306 352 11,100  Level Chicago Center
Wed 08:20:00 41.5253 -87.5865 178° South  Level FlightAware Approximate
Wed 08:20:41 41.5789 -87.6981 148° Southeast 315 362 13,200  Level Chicago Center
Wed 08:21:43 41.4961 -87.6306 149° Southeast 344 396 14,200 1,065 Climbing Chicago Center
Wed 08:22:45 41.3994 -87.5697 155° Southeast 382 440 15,400 1,306 Climbing Chicago Center
Wed 08:23:47 41.2928 -87.5506 172° South 387 445 16,900 1,500 Climbing Chicago Center
Wed 08:24:49 41.1850 -87.5300 172° South 390 449 18,500 1,645 Climbing Chicago Center
Wed 08:25:51 41.0550 -87.4939 168° South 397 457 20,300 1,610 Climbing Chicago Center
Wed 08:26:52 40.9456 -87.4653 169° South 399 459 21,800 1,463 Climbing Chicago Center
Wed 08:27:54 40.8364 -87.4358 168° South 401 461 23,300 1,452 Climbing Chicago Center
Wed 08:28:56 40.7281 -87.4072 169° South 399 459 24,800 1,452 Climbing Chicago Center
Wed 08:29:58 40.6194 -87.3794 169° South 398 458 26,300 1,065 Climbing Chicago Center
Wed 08:31:00 40.5117 -87.3506 168° South 397 457 27,000 339 Climbing Chicago Center
Wed 08:32:02 40.3917 -87.3047 164° South 437 503 27,000 145 Level Chicago Center
Wed 08:33:04 40.2469 -87.2383 161° South 461 531 27,300 629 Climbing Chicago Center
Wed 08:34:06 40.1275 -87.1800 160° South 458 527 28,300 903 Climbing Chicago Center
Wed 08:34:57 40.0311 -87.1375 161° South 455 524 29,000 372 Climbing Indianapolis Center
Wed 08:35:59 39.9175 -87.0586 152° Southeast 473 544 29,000  Level Indianapolis Center
Wed 08:37:01 39.8044 -86.9642 147° Southeast 483 556 29,000  Level Indianapolis Center
Wed 08:38:03 39.6681 -86.8503 147° Southeast 490 564 29,000  Level Indianapolis Center
Wed 08:39:05 39.5544 -86.7553 147° Southeast 491 565 29,000  Level Indianapolis Center
Wed 08:40:07 39.4408 -86.6614 147° Southeast 492 566 29,000  Level Indianapolis Center
Wed 08:41:08 39.3275 -86.5672 147° Southeast 491 565 29,000  Level Indianapolis Center
Wed 08:42:10 39.2136 -86.4736 148° Southeast 491 565 29,000  Level Indianapolis Center
Wed 08:43:12 39.0764 -86.3603 147° Southeast 492 566 29,000  Level Indianapolis Center
Wed 08:44:14 38.9611 -86.2672 148° Southeast 492 566 29,000  Level Indianapolis Center
Wed 08:45:16 38.8356 -86.1647 148° Southeast 488 562 29,000  Level Indianapolis Center
Wed 08:46:18 38.7200 -86.0708 148° Southeast 488 562 29,000  Level Indianapolis Center
Wed 08:47:20 38.6053 -85.9786 148° Southeast 485 558 29,000  Level Indianapolis Center
Wed 08:48:22 38.4911 -85.8861 148° Southeast 483 556 29,000  Level Indianapolis Center
Wed 08:49:23 38.3761 -85.7939 148° Southeast 483 556 29,000  Level Indianapolis Center
Wed 08:50:25 38.2625 -85.7033 148° Southeast 479 551 29,000  Level Indianapolis Center
Wed 08:51:27 38.1489 -85.6119 148° Southeast 481 554 29,000  Level Indianapolis Center
Wed 08:52:29 38.0478 -85.5000 139° Southeast 486 559 29,000  Level Indianapolis Center
Wed 08:53:31 37.9564 -85.3731 132° Southeast 485 558 29,000  Level Indianapolis Center
Wed 08:54:33 37.8481 -85.2214 132° Southeast 483 556 29,000  Level Indianapolis Center
Wed 08:55:35 37.7644 -85.1033 132° Southeast 478 550 29,000  Level Indianapolis Center
Wed 08:56:37 37.6733 -84.9786 133° Southeast 482 555 29,000  Level Indianapolis Center
Wed 08:57:39 37.5672 -84.8356 133° Southeast 478 550 29,000  Level Indianapolis Center
Wed 08:58:41 37.4781 -84.7122 132° Southeast 476 548 29,000  Level Indianapolis Center
Wed 08:59:43 37.3883 -84.5897 133° Southeast 477 549 29,000  Level Indianapolis Center
Wed 09:00:44 37.2972 -84.4678 133° Southeast 478 550 29,000  Level Indianapolis Center
Wed 09:01:46 37.2072 -84.3456 133° Southeast 477 549 29,000  Level Indianapolis Center
Wed 09:02:48 37.1189 -84.2250 133° Southeast 471 542 29,000  Level Indianapolis Center
Wed 09:03:50 37.0128 -84.0839 133° Southeast 475 547 29,000  Level Indianapolis Center
Wed 09:04:52 36.9256 -83.9608 132° Southeast 475 547 29,000 -339 Level Indianapolis Center
Wed 09:05:54 36.8378 -83.8386 132° Southeast 474 545 28,300 -1,161 Descending Indianapolis Center
Wed 09:06:56 36.7503 -83.7172 132° Southeast 472 543 26,600 -1,645 Descending Indianapolis Center
Wed 09:07:58 36.6650 -83.5989 132° Southeast 464 534 24,900 -1,258 Descending Indianapolis Center
Wed 09:09:00 36.5683 -83.4650 132° Southeast 450 518 24,000 -435 Descending Indianapolis Center
Wed 09:10:02 36.4839 -83.3525 133° Southeast 447 514 24,000  Level Indianapolis Center
Wed 09:11:04 36.3983 -83.2353 132° Southeast 456 525 24,000 -484 Level Indianapolis Center
Wed 09:12:06 36.3131 -83.1194 132° Southeast 457 526 23,000 -1,086 Descending Indianapolis Center
Wed 09:13:00 36.2269 -83.0067 133° Southeast 457 526 21,900 -1,053 Descending Atlanta Center
Wed 09:14:00 36.1489 -82.8969 131° Southeast 443 510 21,000 -450 Descending Atlanta Center
Wed 09:15:00 36.0708 -82.7928 133° Southeast 425 489 21,000  Level Atlanta Center
Wed 09:16:00 35.9800 -82.6942 139° Southeast 425 489 21,000  Level Atlanta Center
Wed 09:17:00 35.8747 -82.6164 149° Southeast 437 503 21,000 -850 Level Atlanta Center
Wed 09:18:00 35.7739 -82.5414 149° Southeast 437 503 19,300 -2,100 Descending Atlanta Center
Wed 09:19:00 35.6853 -82.4739 148° Southeast 418 481 16,800 -2,600 Descending Atlanta Center
Wed 09:20:00 35.5886 -82.4069 151° Southeast 405 466 14,100 -2,600 Descending Atlanta Center
Wed 09:21:00 35.4978 -82.3397 149° Southeast 398 458 11,600 -1,950 Descending Atlanta Center
Wed 09:22:00 35.4008 -82.2731 151° Southeast 379 436 10,200 -1,300 Descending Atlanta Center
Wed 09:23:00 35.3194 -82.2594 172° South 323 372 9,000 -1,500 Descending Atlanta Center
Wed 09:24:00 35.2500 -82.2256 158° South 288 331 7,200 -1,800 Descending Atlanta Center
Wed 09:25:00 35.1969 -82.1556 133° Southeast 267 307 5,400 -1,700 Descending Atlanta Center
Wed 09:26:00 35.1436 -82.0881 134° Southeast 272 313 3,800 -1,350 Descending Atlanta Center
Wed 09:27:00 35.0869 -82.0639 161° South 222 255 2,700 -1,100 Descending Atlanta Center

Login

Don't have an account? Register now (free) for customized features, flight alerts, and more!